createdAt,value
2019-02-19T00:00:40.208Z,39.50
2019-02-19T00:03:30.746Z,40.40
2019-02-19T00:06:22.244Z,44.03
2019-02-19T00:09:10.838Z,42.47
2019-02-19T00:11:59.515Z,44.90
2019-02-19T00:14:48.600Z,44.93
2019-02-19T00:17:37.159Z,46.07
2019-02-19T00:20:26.569Z,45.43
2019-02-19T00:23:16.035Z,40.60
2019-02-19T00:26:14.027Z,43.57
2019-02-19T00:29:03.305Z,44.73
2019-02-19T00:31:52.343Z,41.83
2019-02-19T00:34:41.884Z,44.07
2019-02-19T00:37:32.701Z,43.13
2019-02-19T00:40:24.680Z,43.40
2019-02-19T00:43:15.216Z,40.10
2019-02-19T00:46:04.217Z,43.27
2019-02-19T00:48:53.483Z,40.80
2019-02-19T00:51:43.368Z,41.13
2019-02-19T00:54:32.502Z,39.67
2019-02-19T00:57:21.953Z,40.13
2019-02-19T01:00:12.328Z,40.27
2019-02-19T01:03:01.033Z,42.47
2019-02-19T01:05:50.070Z,44.00
2019-02-19T01:08:39.054Z,42.63
2019-02-19T01:11:29.131Z,41.37
2019-02-19T01:14:18.050Z,41.97
2019-02-19T01:17:07.103Z,42.77
2019-02-19T01:19:56.125Z,42.73
2019-02-19T01:22:45.350Z,45.37
2019-02-19T01:25:34.340Z,46.90
2019-02-19T01:28:23.528Z,43.63
2019-02-19T01:31:12.527Z,43.57
2019-02-19T01:34:01.251Z,44.97
2019-02-19T01:36:52.338Z,42.63
2019-02-19T01:39:41.407Z,42.07
2019-02-19T01:42:33.068Z,42.60
2019-02-19T01:45:21.842Z,43.73
2019-02-19T01:48:10.454Z,43.00
2019-02-19T01:50:59.666Z,40.20
2019-02-19T01:53:48.664Z,41.60
2019-02-19T01:56:37.164Z,44.07
2019-02-19T01:59:26.253Z,43.20
2019-02-19T02:02:14.897Z,43.30
2019-02-19T02:05:04.504Z,41.60
2019-02-19T02:07:53.030Z,43.90
2019-02-19T02:10:42.343Z,41.70
2019-02-19T02:13:34.293Z,41.90
2019-02-19T02:16:23.108Z,43.47
2019-02-19T02:19:12.521Z,40.20
2019-02-19T02:22:01.696Z,39.23
2019-02-19T02:24:50.405Z,42.43
2019-02-19T02:27:39.895Z,41.53
2019-02-19T02:30:29.103Z,42.50
2019-02-19T02:33:18.148Z,43.10
2019-02-19T02:36:06.909Z,42.17
2019-02-19T02:38:55.749Z,42.57
2019-02-19T02:41:44.819Z,44.93
2019-02-19T02:44:33.861Z,44.40
2019-02-19T02:47:23.321Z,42.83
2019-02-19T02:50:12.652Z,42.43
2019-02-19T02:53:01.988Z,42.67
2019-02-19T02:55:51.103Z,45.57
2019-02-19T02:58:39.660Z,43.73
2019-02-19T03:01:31.071Z,43.97
2019-02-19T03:04:20.017Z,41.93
2019-02-19T03:07:28.429Z,44.30
2019-02-19T03:10:17.177Z,40.07
2019-02-19T03:13:06.210Z,40.43
2019-02-19T03:16:02.242Z,40.17
2019-02-19T03:18:45.742Z,35.43
2019-02-19T03:21:34.867Z,39.30
2019-02-19T03:24:24.044Z,37.70
2019-02-19T03:27:12.662Z,36.57
2019-02-19T03:30:02.315Z,38.80
2019-02-19T03:32:51.816Z,38.10
2019-02-19T03:35:41.471Z,38.87
2019-02-19T03:38:31.108Z,41.00
2019-02-19T03:41:22.741Z,41.90
2019-02-19T03:44:11.349Z,41.90
2019-02-19T03:47:00.510Z,41.70
2019-02-19T03:49:49.593Z,44.63
2019-02-19T03:52:38.590Z,45.73
2019-02-19T03:55:27.746Z,49.50
2019-02-19T03:58:16.281Z,48.80
2019-02-19T04:01:05.116Z,50.17
2019-02-19T04:03:54.563Z,50.80
2019-02-19T04:06:43.183Z,50.43
2019-02-19T04:09:34.309Z,51.53
2019-02-19T04:12:26.000Z,52.20
2019-02-19T04:15:15.344Z,52.87
2019-02-19T04:18:03.874Z,53.07
2019-02-19T04:20:53.058Z,52.60
2019-02-19T04:23:41.467Z,53.07
2019-02-19T04:26:30.879Z,54.50
2019-02-19T04:29:20.146Z,54.07
2019-02-19T04:32:08.880Z,50.30
2019-02-19T04:34:58.277Z,47.17
2019-02-19T04:37:47.570Z,47.67
2019-02-19T04:40:36.619Z,49.00
2019-02-19T04:43:25.829Z,49.07
2019-02-19T04:46:15.403Z,51.83
2019-02-19T04:49:04.520Z,51.60
2019-02-19T04:51:53.810Z,50.70
2019-02-19T04:54:42.389Z,52.50
2019-02-19T04:57:31.590Z,52.60
2019-02-19T05:00:21.391Z,54.17
2019-02-19T05:03:10.482Z,53.60
2019-02-19T05:05:59.793Z,54.23
2019-02-19T05:08:48.818Z,51.70
2019-02-19T05:11:37.733Z,53.10
2019-02-19T05:14:26.808Z,51.57
2019-02-19T05:17:16.436Z,51.20
2019-02-19T05:20:09.264Z,52.23
2019-02-19T05:22:58.430Z,50.57
2019-02-19T05:25:46.753Z,52.77
2019-02-19T05:28:35.411Z,53.00
2019-02-19T05:31:24.312Z,54.80
2019-02-19T05:34:13.913Z,52.43
2019-02-19T05:37:02.733Z,52.47
2019-02-19T05:39:51.933Z,55.70
2019-02-19T05:42:41.060Z,53.20
2019-02-19T05:45:30.134Z,52.90
2019-02-19T05:48:19.424Z,55.20
2019-02-19T05:51:08.978Z,56.33
2019-02-19T05:54:03.223Z,60.50
2019-02-19T05:56:52.117Z,61.10
2019-02-19T05:59:42.033Z,61.97
2019-02-19T06:02:33.831Z,62.00
2019-02-19T06:05:22.943Z,64.13
2019-02-19T06:08:12.165Z,58.93
2019-02-19T06:11:05.677Z,61.13
2019-02-19T06:13:58.616Z,62.33
2019-02-19T06:16:49.140Z,62.70
2019-02-19T06:19:40.783Z,65.63
2019-02-19T06:22:30.943Z,68.17
2019-02-19T06:25:19.569Z,69.90
2019-02-19T06:28:11.096Z,69.07
2019-02-19T06:31:00.290Z,67.80
2019-02-19T06:33:49.727Z,69.53
2019-02-19T06:36:41.770Z,66.57
2019-02-19T06:39:32.253Z,66.77
2019-02-19T06:42:22.070Z,69.90
2019-02-19T06:45:11.017Z,65.47
2019-02-19T06:48:00.285Z,62.10
2019-02-19T06:50:49.475Z,64.10
2019-02-19T06:53:39.903Z,63.60
2019-02-19T06:56:29.186Z,62.17
2019-02-19T06:59:18.604Z,64.70
2019-02-19T07:02:25.016Z,62.87
2019-02-19T07:05:21.299Z,62.80
2019-02-19T07:08:10.363Z,64.43
2019-02-19T07:11:00.195Z,63.47
2019-02-19T07:13:49.642Z,63.27
2019-02-19T07:16:39.357Z,63.63
2019-02-19T07:19:29.797Z,63.60
2019-02-19T07:22:18.125Z,61.17
2019-02-19T07:25:07.501Z,63.17
2019-02-19T07:27:57.179Z,59.33
2019-02-19T07:30:45.889Z,60.30
2019-02-19T07:33:35.012Z,57.70
2019-02-19T07:36:24.346Z,58.43
2019-02-19T07:39:13.698Z,59.37
2019-02-19T07:42:02.477Z,57.90
2019-02-19T07:44:51.575Z,56.03
2019-02-19T07:47:40.063Z,56.83
2019-02-19T07:50:30.096Z,54.27
2019-02-19T07:53:19.258Z,56.87
2019-02-19T07:56:08.282Z,56.60
2019-02-19T07:58:57.910Z,57.07
2019-02-19T08:01:47.185Z,58.47
2019-02-19T08:04:35.734Z,58.40
2019-02-19T08:07:25.076Z,60.30
2019-02-19T08:10:13.453Z,56.27
2019-02-19T08:13:02.426Z,57.60
2019-02-19T08:15:51.037Z,56.70
2019-02-19T08:18:39.921Z,55.20
2019-02-19T08:21:29.131Z,57.63
2019-02-19T08:24:18.082Z,58.73
2019-02-19T08:27:07.485Z,56.67
2019-02-19T08:29:56.186Z,55.67
2019-02-19T08:32:44.957Z,53.30
2019-02-19T08:35:33.285Z,52.97
2019-02-19T08:38:22.525Z,54.30
2019-02-19T08:41:11.231Z,52.77
2019-02-19T08:44:00.506Z,52.40
2019-02-19T08:46:49.437Z,52.60
2019-02-19T08:49:38.509Z,55.43
2019-02-19T08:52:27.643Z,54.93
2019-02-19T08:55:16.585Z,55.27
2019-02-19T08:58:05.411Z,58.37
2019-02-19T09:00:54.829Z,55.40
2019-02-19T09:03:44.376Z,59.33
2019-02-19T09:06:36.700Z,56.30
2019-02-19T09:09:25.037Z,56.27
2019-02-19T09:12:13.981Z,53.93
2019-02-19T09:15:03.154Z,53.53
2019-02-19T09:17:52.478Z,53.90
2019-02-19T09:20:41.281Z,53.60
2019-02-19T09:23:33.423Z,52.63
2019-02-19T09:26:23.239Z,51.03
2019-02-19T09:29:12.218Z,56.73
2019-02-19T09:32:01.488Z,55.23
2019-02-19T09:34:53.921Z,52.33
2019-02-19T09:37:42.527Z,51.70
2019-02-19T09:40:33.466Z,53.50
2019-02-19T09:43:21.935Z,48.70
2019-02-19T09:46:13.664Z,52.70
2019-02-19T09:49:02.529Z,47.90
2019-02-19T09:51:51.310Z,20.60
2019-02-19T09:54:40.808Z,18.60
2019-02-19T09:57:33.095Z,18.30
2019-02-19T10:00:22.770Z,17.53
2019-02-19T10:03:12.230Z,16.97
2019-02-19T10:06:01.991Z,16.77
2019-02-19T10:08:50.527Z,17.80
2019-02-19T10:11:39.793Z,16.50
2019-02-19T10:14:31.051Z,16.20
2019-02-19T10:17:20.080Z,14.83
2019-02-19T10:20:09.536Z,15.63
2019-02-19T10:22:58.405Z,15.47
2019-02-19T10:25:47.470Z,15.37
2019-02-19T10:28:35.892Z,17.43
2019-02-19T10:31:24.590Z,16.47
2019-02-19T10:34:14.078Z,15.43
2019-02-19T10:37:02.339Z,16.20
2019-02-19T10:39:51.532Z,16.33
2019-02-19T10:42:40.696Z,15.33
2019-02-19T10:45:32.254Z,15.80
2019-02-19T10:48:21.533Z,16.10
2019-02-19T10:51:10.715Z,16.30
2019-02-19T10:53:59.726Z,15.90
2019-02-19T10:56:48.984Z,16.07
2019-02-19T10:59:38.388Z,15.40
2019-02-19T11:02:27.200Z,17.47
2019-02-19T11:05:16.605Z,17.00
2019-02-19T11:08:06.039Z,16.47
2019-02-19T11:10:55.664Z,17.10
2019-02-19T11:13:44.883Z,17.27
2019-02-19T11:16:34.055Z,17.20
2019-02-19T11:19:22.853Z,16.97
2019-02-19T11:22:13.544Z,17.33
2019-02-19T11:25:02.317Z,16.50
2019-02-19T11:27:51.733Z,17.30
2019-02-19T11:30:41.119Z,17.30
2019-02-19T11:33:31.253Z,17.60
2019-02-19T11:36:23.558Z,17.47
2019-02-19T11:39:13.443Z,18.97
2019-02-19T11:42:01.920Z,18.00
2019-02-19T11:44:50.855Z,17.60
2019-02-19T11:47:39.867Z,17.80
2019-02-19T11:50:30.301Z,17.43
2019-02-19T11:53:18.901Z,17.53
2019-02-19T11:56:08.493Z,16.77
2019-02-19T11:58:57.582Z,18.17
2019-02-19T12:01:46.374Z,18.53
2019-02-19T12:04:35.443Z,17.10
2019-02-19T12:07:24.396Z,16.73
2019-02-19T12:10:14.355Z,16.60
2019-02-19T12:13:03.503Z,16.33
2019-02-19T12:15:52.126Z,15.47
2019-02-19T12:18:46.270Z,16.47
2019-02-19T12:21:34.003Z,14.80
2019-02-19T12:24:22.953Z,13.77
2019-02-19T12:27:11.493Z,15.30
2019-02-19T12:30:01.274Z,13.20
2019-02-19T12:32:50.590Z,15.30
2019-02-19T12:35:39.549Z,13.87
2019-02-19T12:38:29.018Z,14.80
2019-02-19T12:41:17.988Z,12.60
2019-02-19T12:44:07.278Z,13.00
2019-02-19T12:46:56.570Z,13.67
2019-02-19T12:49:45.861Z,12.00
2019-02-19T12:52:35.300Z,13.30
2019-02-19T12:55:24.571Z,12.87
2019-02-19T12:58:13.673Z,12.60
2019-02-19T13:01:02.846Z,12.40
2019-02-19T13:03:52.366Z,12.80
2019-02-19T13:06:41.332Z,12.67
2019-02-19T13:09:32.280Z,12.30
2019-02-19T13:12:21.268Z,12.33
2019-02-19T13:15:12.226Z,12.60
2019-02-19T13:18:01.007Z,13.40
2019-02-19T13:20:50.043Z,12.70
2019-02-19T13:23:39.549Z,12.27
2019-02-19T13:26:30.733Z,11.97
2019-02-19T13:29:19.832Z,13.17
2019-02-19T13:32:08.300Z,13.83
2019-02-19T13:34:57.670Z,12.87
2019-02-19T13:37:47.138Z,11.73
2019-02-19T13:40:36.409Z,12.43
2019-02-19T13:43:24.973Z,11.33
2019-02-19T13:46:14.234Z,11.87
2019-02-19T13:49:11.860Z,11.20
2019-02-19T13:51:55.570Z,11.33
2019-02-19T13:55:03.336Z,10.70
2019-02-19T13:57:52.304Z,12.13
2019-02-19T14:00:41.985Z,12.43
2019-02-19T14:03:31.660Z,11.50
2019-02-19T14:06:20.928Z,11.63
2019-02-19T14:09:09.496Z,11.37
2019-02-19T14:11:58.418Z,11.00
2019-02-19T14:14:58.097Z,11.77
2019-02-19T14:17:47.579Z,11.10
2019-02-19T14:20:59.858Z,10.97
2019-02-19T14:24:26.267Z,13.33
2019-02-19T14:27:39.887Z,13.10
2019-02-19T14:30:48.953Z,10.93
2019-02-19T14:33:53.862Z,11.40
2019-02-19T14:37:12.809Z,11.10
2019-02-19T14:40:20.293Z,11.33
2019-02-19T14:43:28.589Z,11.43
2019-02-19T14:46:39.232Z,10.20
2019-02-19T14:49:47.651Z,10.23
2019-02-19T14:53:15.798Z,9.93
2019-02-19T14:56:22.166Z,10.23
2019-02-19T14:59:33.307Z,10.17
2019-02-19T15:02:53.492Z,8.80
2019-02-19T15:06:06.969Z,8.63
2019-02-19T15:09:26.903Z,8.87
2019-02-19T15:12:33.477Z,9.80
2019-02-19T15:15:54.155Z,10.13
2019-02-19T15:19:20.152Z,9.67
2019-02-19T15:22:37.483Z,10.60
2019-02-19T15:25:41.273Z,10.20
2019-02-19T15:28:55.589Z,10.10
2019-02-19T15:31:51.402Z,10.67
2019-02-19T15:34:59.447Z,9.13
2019-02-19T15:38:06.640Z,11.20
2019-02-19T15:41:29.902Z,11.73
2019-02-19T15:44:37.531Z,10.30
2019-02-19T15:47:48.811Z,9.90
2019-02-19T15:50:55.328Z,9.90
2019-02-19T15:53:59.513Z,8.90
2019-02-19T15:57:12.803Z,10.00
2019-02-19T16:00:29.642Z,9.63
2019-02-19T16:03:39.237Z,9.30
2019-02-19T16:06:49.971Z,9.90
2019-02-19T16:10:13.279Z,9.03
2019-02-19T16:13:27.106Z,10.40
2019-02-19T16:16:37.747Z,10.47
2019-02-19T16:19:56.977Z,9.97
2019-02-19T16:23:03.642Z,10.07
2019-02-19T16:26:16.312Z,10.00
2019-02-19T16:29:30.530Z,10.47
2019-02-19T16:32:37.043Z,9.93
2019-02-19T16:36:00.135Z,10.50
2019-02-19T16:38:55.396Z,10.90
2019-02-19T16:42:02.141Z,10.80
2019-02-19T16:45:05.663Z,11.50
2019-02-19T16:48:10.136Z,10.40
2019-02-19T16:51:20.839Z,11.80
2019-02-19T16:54:31.402Z,10.50
2019-02-19T16:57:51.680Z,10.00
2019-02-19T17:00:52.723Z,9.77
2019-02-19T17:03:58.117Z,11.70
2019-02-19T17:06:54.861Z,10.20
2019-02-19T17:09:51.100Z,11.77
2019-02-19T17:13:17.616Z,12.67
2019-02-19T17:16:31.153Z,14.60
2019-02-19T17:19:50.883Z,13.43
2019-02-19T17:23:04.684Z,14.83
2019-02-19T17:26:27.150Z,16.00
2019-02-19T17:29:25.660Z,15.20
2019-02-19T17:32:24.748Z,15.40
2019-02-19T17:35:31.184Z,15.90
2019-02-19T17:38:28.180Z,14.47
2019-02-19T17:41:35.203Z,15.83
2019-02-19T17:44:33.751Z,15.90
2019-02-19T17:47:40.143Z,13.50
2019-02-19T17:50:46.288Z,13.97
2019-02-19T17:53:44.652Z,14.70
2019-02-19T17:56:46.493Z,14.57
2019-02-19T17:59:57.104Z,14.37
2019-02-19T18:03:16.831Z,14.50
2019-02-19T18:06:36.524Z,12.80
2019-02-19T18:09:38.262Z,14.37
2019-02-19T18:12:45.749Z,14.47
2019-02-19T18:15:51.868Z,14.43
2019-02-19T18:18:57.584Z,14.90
2019-02-19T18:21:46.063Z,16.20
2019-02-19T18:24:38.576Z,14.87
2019-02-19T18:27:33.076Z,13.97
2019-02-19T18:30:22.399Z,14.33
2019-02-19T18:33:11.322Z,14.70
2019-02-19T18:36:00.433Z,14.70
2019-02-19T18:38:55.325Z,14.80
2019-02-19T18:41:45.565Z,14.13
2019-02-19T18:44:35.015Z,14.00
2019-02-19T18:47:25.375Z,14.53
2019-02-19T18:50:14.436Z,17.23
2019-02-19T18:53:08.508Z,15.20
2019-02-19T18:56:02.904Z,13.50
2019-02-19T18:58:52.809Z,14.50
2019-02-19T19:01:45.148Z,16.30
2019-02-19T19:04:38.184Z,16.50
2019-02-19T19:07:31.278Z,17.10
2019-02-19T19:10:22.538Z,17.20
2019-02-19T19:13:11.543Z,13.57
2019-02-19T19:16:00.698Z,14.97
2019-02-19T19:18:50.404Z,13.63
2019-02-19T19:21:40.115Z,14.40
2019-02-19T19:24:32.103Z,15.80
2019-02-19T19:27:22.853Z,14.30
2019-02-19T19:30:12.238Z,12.40
2019-02-19T19:33:01.008Z,13.57
2019-02-19T19:35:50.305Z,14.13
2019-02-19T19:38:44.954Z,14.80
2019-02-19T19:41:33.732Z,14.00
2019-02-19T19:44:24.963Z,14.90
2019-02-19T19:47:14.877Z,14.07
2019-02-19T19:50:04.542Z,15.93
2019-02-19T19:52:53.572Z,15.07
2019-02-19T19:55:42.611Z,15.60
2019-02-19T19:58:33.801Z,17.20
2019-02-19T20:01:22.915Z,19.43
2019-02-19T20:04:13.810Z,21.30
2019-02-19T20:07:04.145Z,17.90
2019-02-19T20:09:55.479Z,15.00
2019-02-19T20:12:44.765Z,15.70
2019-02-19T20:15:33.943Z,24.87
2019-02-19T20:18:23.131Z,18.40
2019-02-19T20:21:12.588Z,15.47
2019-02-19T20:24:01.861Z,16.27
2019-02-19T20:26:51.452Z,16.90
2019-02-19T20:29:40.926Z,16.00
2019-02-19T20:32:30.057Z,16.00
2019-02-19T20:35:24.789Z,15.53
2019-02-19T20:38:16.721Z,17.13
2019-02-19T20:41:10.091Z,16.07
2019-02-19T20:43:58.791Z,14.97
2019-02-19T20:46:47.794Z,15.43
2019-02-19T20:49:39.536Z,15.53
2019-02-19T20:52:28.912Z,16.50
2019-02-19T20:55:17.872Z,15.37
2019-02-19T20:58:06.924Z,17.33
2019-02-19T21:00:59.995Z,16.87
2019-02-19T21:03:51.299Z,16.10
2019-02-19T21:06:44.075Z,14.90
2019-02-19T21:09:43.192Z,17.23
2019-02-19T21:12:25.045Z,16.97
2019-02-19T21:15:14.273Z,15.47
2019-02-19T21:18:03.664Z,16.47
2019-02-19T21:20:52.615Z,16.10
2019-02-19T21:23:41.617Z,17.50
2019-02-19T21:26:32.105Z,16.07
2019-02-19T21:29:25.683Z,16.17
2019-02-19T21:32:15.142Z,15.20
2019-02-19T21:35:04.892Z,15.90
2019-02-19T21:37:57.056Z,16.30
2019-02-19T21:40:46.632Z,14.77
2019-02-19T21:43:38.025Z,14.83
2019-02-19T21:46:27.763Z,14.70
2019-02-19T21:49:16.822Z,14.73
2019-02-19T21:52:05.949Z,15.60
2019-02-19T21:54:57.681Z,14.00
2019-02-19T21:57:48.931Z,14.30
2019-02-19T22:00:39.736Z,13.90
2019-02-19T22:03:36.011Z,15.60
2019-02-19T22:06:26.960Z,14.90
2019-02-19T22:09:15.875Z,14.90
2019-02-19T22:12:05.537Z,15.57
2019-02-19T22:14:55.222Z,14.40
2019-02-19T22:17:44.796Z,13.63
2019-02-19T22:20:58.990Z,15.07
2019-02-19T22:23:48.161Z,15.53
2019-02-19T22:26:37.277Z,14.93
2019-02-19T22:29:26.279Z,15.17
2019-02-19T22:32:17.936Z,15.20
2019-02-19T22:35:07.171Z,15.73
2019-02-19T22:37:55.582Z,15.07
2019-02-19T22:40:45.207Z,15.57
2019-02-19T22:43:33.980Z,16.57
2019-02-19T22:46:23.010Z,15.50
2019-02-19T22:49:12.369Z,15.90
2019-02-19T22:52:01.231Z,15.33
2019-02-19T22:55:08.947Z,16.60
2019-02-19T22:57:57.905Z,17.07
2019-02-19T23:01:15.222Z,15.30
2019-02-19T23:04:03.446Z,15.67
2019-02-19T23:06:52.474Z,16.07
2019-02-19T23:09:41.088Z,16.30
2019-02-19T23:12:31.099Z,15.73
2019-02-19T23:15:22.868Z,16.50
2019-02-19T23:18:11.928Z,14.57
2019-02-19T23:21:01.022Z,16.33
2019-02-19T23:23:49.544Z,15.27
2019-02-19T23:26:38.848Z,17.00
2019-02-19T23:29:28.109Z,15.03
2019-02-19T23:32:17.254Z,15.23
2019-02-19T23:35:32.174Z,15.60
2019-02-19T23:38:21.232Z,15.13
2019-02-19T23:41:10.264Z,16.57
2019-02-19T23:43:59.471Z,17.17
2019-02-19T23:46:48.602Z,17.30
2019-02-19T23:49:37.272Z,16.20
2019-02-19T23:52:30.541Z,14.63
2019-02-19T23:55:16.970Z,16.00
2019-02-19T23:58:06.294Z,14.20
